Gridley, Kansas
Current Conditions -  °F | °C
As of 4:53 PM on Thursday 27 Nov 2014 (Local Time) from KEMP Reporting Station
Clear Clear  
Wind Chill: 30°   Ceiling: Unl
Heat Index: 37°   Visibility: 10mi
Dew Point: 19°   Wind: 10mph
Humidity: 48%   Direction: 150°SSE
Pressure: 30.32"   Gusts: NA
Location:  38.1°N, 95.88°W
Report Text: KEMP 272253Z AUTO 15009KT 10SM CLR 03/M07 A3032 RMK AO2 SLP282 T00281072
Loading
Personal Weather Stations






























Interactive Weather Map New forecast layout! Learn more

10-Day Weather Forecast

Advertisements
Track Severe Weather on mobile